createdAt,value
2022-09-16T00:00:33.048Z,98762.00
2022-09-16T00:02:06.883Z,98759.00
2022-09-16T00:03:41.407Z,98767.00
2022-09-16T00:05:14.872Z,98764.00
2022-09-16T00:06:47.373Z,98773.00
2022-09-16T00:08:22.660Z,98765.00
2022-09-16T00:09:55.843Z,98765.00
2022-09-16T00:11:33.628Z,98770.00
2022-09-16T00:13:06.135Z,98767.00
2022-09-16T00:14:39.591Z,98767.00
2022-09-16T00:16:19.990Z,98769.00
2022-09-16T00:17:53.235Z,98764.00
2022-09-16T00:19:27.998Z,98773.00
2022-09-16T00:21:01.408Z,98763.00
2022-09-16T00:22:34.315Z,98767.00
2022-09-16T00:24:08.311Z,98769.00
2022-09-16T00:25:40.939Z,98767.00
2022-09-16T00:27:14.465Z,98773.00
2022-09-16T00:28:49.331Z,98764.00
2022-09-16T00:30:22.552Z,98763.00
2022-09-16T00:31:56.531Z,98763.00
2022-09-16T00:33:30.431Z,98774.00
2022-09-16T00:35:06.313Z,98759.00
2022-09-16T00:36:40.093Z,98763.00
2022-09-16T00:38:12.706Z,98763.00
2022-09-16T00:39:49.113Z,98759.00
2022-09-16T00:41:27.531Z,98765.00
2022-09-16T00:43:01.081Z,98767.00
2022-09-16T00:45:00.152Z,98764.00
2022-09-16T00:46:39.798Z,98764.00
2022-09-16T00:48:21.474Z,98759.00
2022-09-16T00:50:01.521Z,98757.00
2022-09-16T00:51:36.977Z,98764.00
2022-09-16T00:53:16.074Z,98768.00
2022-09-16T00:54:50.023Z,98761.00
2022-09-16T00:56:24.364Z,98756.00
2022-09-16T00:58:04.430Z,98761.00
2022-09-16T00:59:42.438Z,98753.00
2022-09-16T01:01:18.389Z,98769.00
2022-09-16T01:02:52.945Z,98761.00
2022-09-16T01:04:32.410Z,98765.00
2022-09-16T01:06:07.053Z,98760.00
2022-09-16T01:07:49.018Z,98753.00
2022-09-16T01:09:26.966Z,98767.00
2022-09-16T01:11:00.580Z,98768.00
2022-09-16T01:12:38.431Z,98758.00
2022-09-16T01:14:33.017Z,98763.00
2022-09-16T01:16:13.468Z,98767.00
2022-09-16T01:18:11.367Z,98769.00
2022-09-16T01:20:11.942Z,98757.00
2022-09-16T01:21:54.791Z,98764.00
2022-09-16T01:24:12.915Z,98765.00
2022-09-16T01:26:09.727Z,98766.00
2022-09-16T01:28:14.479Z,98773.00
2022-09-16T01:30:44.434Z,98750.00
2022-09-16T01:32:27.032Z,98749.00
2022-09-16T01:34:12.972Z,98755.00
2022-09-16T01:36:08.247Z,98760.00
2022-09-16T01:37:54.434Z,98756.00
2022-09-16T01:39:39.184Z,98754.00
2022-09-16T01:41:28.144Z,98762.00
2022-09-16T01:43:19.419Z,98756.00
2022-09-16T01:45:03.950Z,98757.00
2022-09-16T01:46:48.032Z,98753.00
2022-09-16T01:48:30.861Z,98750.00
2022-09-16T01:50:13.754Z,98760.00
2022-09-16T01:51:54.731Z,98754.00
2022-09-16T01:53:36.334Z,98761.00
2022-09-16T01:55:18.039Z,98760.00
2022-09-16T01:57:02.590Z,98760.00
2022-09-16T01:58:44.343Z,98755.00
2022-09-16T02:00:17.952Z,98756.00
2022-09-16T02:02:03.130Z,98755.00
2022-09-16T02:03:42.249Z,98764.00
2022-09-16T02:05:23.190Z,98756.00
2022-09-16T02:07:00.476Z,98762.00
2022-09-16T02:08:41.445Z,98761.00
2022-09-16T02:10:23.338Z,98755.00
2022-09-16T02:12:05.626Z,98760.00
2022-09-16T02:13:45.284Z,98758.00
2022-09-16T02:15:24.344Z,98753.00
2022-09-16T02:17:02.343Z,98754.00
2022-09-16T02:18:41.460Z,98755.00
2022-09-16T02:20:22.495Z,98757.00
2022-09-16T02:22:00.023Z,98745.00
2022-09-16T02:23:40.492Z,98750.00
2022-09-16T02:25:19.683Z,98744.00
2022-09-16T02:26:59.693Z,98754.00
2022-09-16T02:28:38.840Z,98748.00
2022-09-16T02:30:17.538Z,98751.00
2022-09-16T02:31:56.012Z,98749.00
2022-09-16T02:33:37.508Z,98742.00
2022-09-16T02:35:16.602Z,98750.00
2022-09-16T02:36:58.860Z,98749.00
2022-09-16T02:38:39.862Z,98751.00
2022-09-16T02:40:19.374Z,98755.00
2022-09-16T02:41:52.832Z,98755.00
2022-09-16T02:43:29.223Z,98752.00
2022-09-16T02:45:05.252Z,98756.00
2022-09-16T02:46:52.211Z,98755.00
2022-09-16T02:48:37.246Z,98747.00
2022-09-16T02:50:18.616Z,98749.00
2022-09-16T02:52:00.701Z,98736.00
2022-09-16T02:53:47.144Z,98736.00
2022-09-16T02:55:35.752Z,98745.00
2022-09-16T02:57:10.465Z,98739.00
2022-09-16T02:58:43.619Z,98738.00
2022-09-16T03:00:40.277Z,98736.00
2022-09-16T03:02:14.526Z,98737.00
2022-09-16T03:03:49.721Z,98733.00
2022-09-16T03:05:29.646Z,98734.00
2022-09-16T03:07:06.991Z,98730.00
2022-09-16T03:08:40.997Z,98731.00
2022-09-16T03:10:15.354Z,98730.00
2022-09-16T03:12:26.547Z,98737.00
2022-09-16T03:14:21.105Z,98727.00
2022-09-16T03:16:02.325Z,98731.00
2022-09-16T03:17:54.400Z,98729.00
2022-09-16T03:19:40.551Z,98730.00
2022-09-16T03:21:24.893Z,98737.00
2022-09-16T03:23:14.982Z,98733.00
2022-09-16T03:25:03.587Z,98730.00
2022-09-16T03:26:48.567Z,98729.00
2022-09-16T03:28:27.388Z,98727.00
2022-09-16T03:30:06.941Z,98725.00
2022-09-16T03:31:48.124Z,98727.00
2022-09-16T03:33:32.139Z,98733.00
2022-09-16T03:35:17.961Z,98738.00
2022-09-16T03:36:57.723Z,98740.00
2022-09-16T03:38:34.856Z,98734.00
2022-09-16T03:40:14.320Z,98734.00
2022-09-16T03:41:48.062Z,98733.00
2022-09-16T03:43:21.851Z,98732.00
2022-09-16T03:44:55.544Z,98727.00
2022-09-16T03:46:29.332Z,98728.00
2022-09-16T03:48:03.131Z,98726.00
2022-09-16T03:49:37.961Z,98724.00
2022-09-16T03:51:12.500Z,98714.00
2022-09-16T03:52:46.352Z,98711.00
2022-09-16T03:54:19.668Z,98713.00
2022-09-16T03:55:52.866Z,98712.00
2022-09-16T03:57:28.026Z,98716.00
2022-09-16T03:59:01.660Z,98711.00
2022-09-16T04:00:34.952Z,98715.00
2022-09-16T04:02:08.864Z,98715.00
2022-09-16T04:03:41.640Z,98713.00
2022-09-16T04:05:15.131Z,98715.00
2022-09-16T04:06:49.836Z,98710.00
2022-09-16T04:08:24.081Z,98713.00
2022-09-16T04:09:57.352Z,98704.00
2022-09-16T04:11:31.647Z,98706.00
2022-09-16T04:13:05.626Z,98711.00
2022-09-16T04:14:37.932Z,98695.00
2022-09-16T04:16:11.237Z,98704.00
2022-09-16T04:17:43.687Z,98703.00
2022-09-16T04:19:16.973Z,98703.00
2022-09-16T04:20:49.468Z,98701.00
2022-09-16T04:22:24.165Z,98708.00
2022-09-16T04:23:57.608Z,98705.00
2022-09-16T04:25:30.530Z,98701.00
2022-09-16T04:27:04.749Z,98703.00
2022-09-16T04:28:38.340Z,98708.00
2022-09-16T04:30:13.506Z,98701.00
2022-09-16T04:31:46.797Z,98698.00
2022-09-16T04:33:20.339Z,98700.00
2022-09-16T04:34:53.565Z,98710.00
2022-09-16T04:36:27.033Z,98699.00
2022-09-16T04:38:01.383Z,98698.00
2022-09-16T04:39:34.691Z,98698.00
2022-09-16T04:41:12.432Z,98701.00
2022-09-16T04:42:49.649Z,98695.00
2022-09-16T04:44:23.577Z,98696.00
2022-09-16T04:45:57.199Z,98706.00
2022-09-16T04:47:30.494Z,98703.00
2022-09-16T04:49:04.192Z,98707.00
2022-09-16T04:50:37.480Z,98703.00
2022-09-16T04:52:11.445Z,98706.00
2022-09-16T04:53:46.882Z,98701.00
2022-09-16T04:55:22.912Z,98709.00
2022-09-16T04:56:58.805Z,98711.00
2022-09-16T04:58:31.154Z,98716.00
2022-09-16T05:00:05.985Z,98711.00
2022-09-16T05:01:41.928Z,98723.00
2022-09-16T05:03:15.471Z,98714.00
2022-09-16T05:04:50.088Z,98707.00
2022-09-16T05:06:26.835Z,98715.00
2022-09-16T05:08:00.690Z,98709.00
2022-09-16T05:09:37.470Z,98707.00
2022-09-16T05:11:14.543Z,98723.00
2022-09-16T05:12:53.083Z,98717.00
2022-09-16T05:14:26.425Z,98708.00
2022-09-16T05:16:03.613Z,98708.00
2022-09-16T05:17:50.890Z,98708.00
2022-09-16T05:19:27.782Z,98717.00
2022-09-16T05:21:02.396Z,98710.00
2022-09-16T05:22:35.741Z,98702.00
2022-09-16T05:24:12.153Z,98711.00
2022-09-16T05:25:46.389Z,98709.00
2022-09-16T05:27:19.920Z,98705.00
2022-09-16T05:28:53.816Z,98706.00
2022-09-16T05:30:27.519Z,98701.00
2022-09-16T05:32:00.986Z,98706.00
2022-09-16T05:33:33.747Z,98713.00
2022-09-16T05:35:08.340Z,98711.00
2022-09-16T05:36:43.777Z,98702.00
2022-09-16T05:38:17.210Z,98711.00
2022-09-16T05:39:50.562Z,98709.00
2022-09-16T05:41:25.806Z,98712.00
2022-09-16T05:42:59.179Z,98714.00
2022-09-16T05:44:35.032Z,98717.00
2022-09-16T05:46:08.869Z,98716.00
2022-09-16T05:47:42.294Z,98712.00
2022-09-16T05:49:20.706Z,98711.00
2022-09-16T05:50:56.521Z,98710.00
2022-09-16T05:52:29.913Z,98715.00
2022-09-16T05:54:03.205Z,98709.00
2022-09-16T05:55:36.384Z,98709.00
2022-09-16T05:57:11.009Z,98716.00
2022-09-16T05:58:44.680Z,98704.00
2022-09-16T06:00:18.538Z,98703.00
2022-09-16T06:01:51.890Z,98712.00
2022-09-16T06:03:27.136Z,98712.00
2022-09-16T06:05:00.432Z,98719.00
2022-09-16T06:06:36.631Z,98713.00
2022-09-16T06:08:10.156Z,98712.00
2022-09-16T06:09:44.079Z,98704.00
2022-09-16T06:11:18.341Z,98701.00
2022-09-16T06:12:53.012Z,98702.00
2022-09-16T06:14:26.485Z,98702.00
2022-09-16T06:15:59.766Z,98709.00
2022-09-16T06:17:33.229Z,98702.00
2022-09-16T06:19:10.449Z,98699.00
2022-09-16T06:20:44.595Z,98703.00
2022-09-16T06:22:18.316Z,98704.00
2022-09-16T06:23:53.196Z,98712.00
2022-09-16T06:25:26.828Z,98708.00
2022-09-16T06:27:00.075Z,98710.00
2022-09-16T06:28:35.396Z,98708.00
2022-09-16T06:30:11.282Z,98703.00
2022-09-16T06:31:45.379Z,98704.00
2022-09-16T06:33:18.565Z,98701.00
2022-09-16T06:34:52.324Z,98702.00
2022-09-16T06:36:31.530Z,98705.00
2022-09-16T06:38:05.681Z,98712.00
2022-09-16T06:39:39.333Z,98707.00
2022-09-16T06:41:15.033Z,98704.00
2022-09-16T06:42:48.488Z,98698.00
2022-09-16T06:44:23.299Z,98701.00
2022-09-16T06:46:00.626Z,98706.00
2022-09-16T06:47:34.368Z,98705.00
2022-09-16T06:49:07.900Z,98705.00
2022-09-16T06:50:40.185Z,98700.00
2022-09-16T06:52:13.766Z,98703.00
2022-09-16T06:53:46.721Z,98709.00
2022-09-16T06:55:20.393Z,98704.00
2022-09-16T06:56:53.733Z,98710.00
2022-09-16T06:58:26.125Z,98705.00
2022-09-16T07:00:00.695Z,98699.00
2022-09-16T07:01:34.998Z,98703.00
2022-09-16T07:03:08.453Z,98697.00
2022-09-16T07:04:41.890Z,98704.00
2022-09-16T07:06:17.316Z,98709.00
2022-09-16T07:07:50.496Z,98712.00
2022-09-16T07:09:24.031Z,98708.00
2022-09-16T07:11:01.738Z,98708.00
2022-09-16T07:12:35.020Z,98717.00
2022-09-16T07:14:10.324Z,98715.00
2022-09-16T07:16:09.148Z,98719.00
2022-09-16T07:17:38.405Z,98719.00
2022-09-16T07:19:11.889Z,98722.00
2022-09-16T07:20:45.617Z,98717.00
2022-09-16T07:22:19.564Z,98716.00
2022-09-16T07:23:57.925Z,98722.00
2022-09-16T07:25:35.646Z,98719.00
2022-09-16T07:27:09.194Z,98708.00
2022-09-16T07:28:46.125Z,98714.00
2022-09-16T07:30:19.404Z,98718.00
2022-09-16T07:31:54.152Z,98718.00
2022-09-16T07:33:27.597Z,98720.00
2022-09-16T07:35:00.912Z,98722.00
2022-09-16T07:36:37.108Z,98726.00
2022-09-16T07:38:11.360Z,98723.00
2022-09-16T07:39:44.621Z,98721.00
2022-09-16T07:41:23.610Z,98735.00
2022-09-16T07:42:57.075Z,98737.00
2022-09-16T07:44:30.511Z,98739.00
2022-09-16T07:46:05.085Z,98738.00
2022-09-16T07:47:39.761Z,98746.00
2022-09-16T07:49:15.594Z,98736.00
2022-09-16T07:50:57.008Z,98739.00
2022-09-16T07:52:30.357Z,98732.00
2022-09-16T07:54:08.524Z,98733.00
2022-09-16T07:55:41.794Z,98747.00
2022-09-16T07:57:15.026Z,98742.00
2022-09-16T07:58:48.601Z,98743.00
2022-09-16T08:00:22.526Z,98743.00
2022-09-16T08:01:56.267Z,98739.00
2022-09-16T08:03:30.956Z,98742.00
2022-09-16T08:05:05.122Z,98746.00
2022-09-16T08:06:41.224Z,98740.00
2022-09-16T08:08:14.518Z,98743.00
2022-09-16T08:09:50.839Z,98741.00
2022-09-16T08:11:27.504Z,98745.00
2022-09-16T08:13:01.013Z,98732.00
2022-09-16T08:14:34.750Z,98735.00
2022-09-16T08:16:11.569Z,98735.00
2022-09-16T08:17:45.084Z,98744.00
2022-09-16T08:19:20.606Z,98741.00
2022-09-16T08:20:53.913Z,98746.00
2022-09-16T08:22:27.112Z,98746.00
2022-09-16T08:24:00.712Z,98752.00
2022-09-16T08:25:33.956Z,98751.00
2022-09-16T08:27:07.842Z,98746.00
2022-09-16T08:29:07.245Z,98746.00
2022-09-16T08:30:38.124Z,98743.00
2022-09-16T08:32:11.728Z,98747.00
2022-09-16T08:33:45.900Z,98762.00
2022-09-16T08:35:20.575Z,98756.00
2022-09-16T08:36:53.944Z,98756.00
2022-09-16T08:38:27.718Z,98766.00
2022-09-16T08:40:01.242Z,98758.00
2022-09-16T08:42:00.288Z,98764.00
2022-09-16T08:43:40.868Z,98759.00
2022-09-16T08:45:33.120Z,98762.00
2022-09-16T08:47:20.796Z,98758.00
2022-09-16T08:49:01.357Z,98765.00
2022-09-16T08:50:40.853Z,98771.00
2022-09-16T08:52:19.724Z,98772.00
2022-09-16T08:54:00.452Z,98759.00
2022-09-16T08:55:39.776Z,98764.00
2022-09-16T08:57:19.827Z,98758.00
2022-09-16T08:58:57.726Z,98760.00
2022-09-16T09:00:31.913Z,98762.00
2022-09-16T09:02:36.516Z,98762.00
2022-09-16T09:04:10.393Z,98767.00
2022-09-16T09:05:53.597Z,98761.00
2022-09-16T09:07:46.320Z,98760.00
2022-09-16T09:09:41.559Z,98763.00
2022-09-16T09:11:34.982Z,98762.00
2022-09-16T09:13:31.371Z,98765.00
2022-09-16T09:15:28.362Z,98757.00
2022-09-16T09:17:14.145Z,98756.00
2022-09-16T09:19:08.376Z,98755.00
2022-09-16T09:20:55.452Z,98748.00
2022-09-16T09:22:57.605Z,98750.00
2022-09-16T09:24:56.805Z,98751.00
2022-09-16T09:26:49.786Z,98755.00
2022-09-16T09:28:50.529Z,98758.00
2022-09-16T09:30:26.674Z,98763.00
2022-09-16T09:32:18.108Z,98762.00
2022-09-16T09:34:06.919Z,98761.00
2022-09-16T09:36:17.019Z,98759.00
2022-09-16T09:38:27.996Z,98757.00
2022-09-16T09:40:12.433Z,98749.00
2022-09-16T09:41:51.342Z,98746.00
2022-09-16T09:43:34.527Z,98757.00
2022-09-16T09:45:24.207Z,98757.00
2022-09-16T09:47:04.288Z,98761.00
2022-09-16T09:48:44.754Z,98754.00
2022-09-16T09:50:26.702Z,98742.00
2022-09-16T09:52:09.081Z,98746.00
2022-09-16T09:53:49.314Z,98754.00
2022-09-16T09:55:25.728Z,98745.00
2022-09-16T09:57:04.876Z,98756.00
2022-09-16T09:58:44.684Z,98744.00
2022-09-16T10:00:21.357Z,98748.00
2022-09-16T10:01:56.445Z,98744.00
2022-09-16T10:03:31.577Z,98749.00
2022-09-16T10:05:07.633Z,98752.00
2022-09-16T10:06:42.760Z,98753.00
2022-09-16T10:08:26.133Z,98749.00
2022-09-16T10:10:13.109Z,98745.00
2022-09-16T10:11:55.002Z,98745.00
2022-09-16T10:13:31.227Z,98747.00
2022-09-16T10:15:06.341Z,98746.00
2022-09-16T10:16:48.586Z,98751.00
2022-09-16T10:18:29.687Z,98754.00
2022-09-16T10:20:07.684Z,98757.00
2022-09-16T10:21:47.819Z,98742.00
2022-09-16T10:23:29.737Z,98746.00
2022-09-16T10:25:08.038Z,98751.00
2022-09-16T10:26:42.480Z,98752.00
2022-09-16T10:28:22.520Z,98749.00
2022-09-16T10:30:11.453Z,98750.00
2022-09-16T10:31:45.325Z,98739.00
2022-09-16T10:33:25.727Z,98740.00
2022-09-16T10:34:59.092Z,98729.00
2022-09-16T10:36:36.105Z,98738.00
2022-09-16T10:38:22.820Z,98733.00
2022-09-16T10:39:59.814Z,98734.00
2022-09-16T10:41:42.610Z,98736.00
2022-09-16T10:43:17.576Z,98732.00
2022-09-16T10:44:53.922Z,98728.00
2022-09-16T10:46:28.849Z,98731.00
2022-09-16T10:48:07.594Z,98731.00
2022-09-16T10:49:48.636Z,98734.00
2022-09-16T10:51:25.772Z,98722.00
2022-09-16T10:52:58.956Z,98732.00
2022-09-16T10:54:33.592Z,98729.00
2022-09-16T10:56:17.353Z,98742.00
2022-09-16T10:57:50.854Z,98732.00
2022-09-16T10:59:24.131Z,98743.00
2022-09-16T11:01:24.005Z,98741.00
2022-09-16T11:04:05.532Z,98732.00
2022-09-16T11:05:52.448Z,98731.00
2022-09-16T11:07:40.481Z,98734.00
2022-09-16T11:09:23.173Z,98732.00
2022-09-16T11:11:11.191Z,98722.00
2022-09-16T11:13:18.401Z,98727.00
2022-09-16T11:15:01.009Z,98724.00
2022-09-16T11:17:11.160Z,98721.00
2022-09-16T11:18:58.677Z,98731.00
2022-09-16T11:21:05.281Z,98733.00
2022-09-16T11:22:46.486Z,98724.00
2022-09-16T11:24:38.669Z,98726.00
2022-09-16T11:26:23.584Z,98725.00
2022-09-16T11:28:08.825Z,98712.00
2022-09-16T11:30:03.146Z,98704.00
2022-09-16T11:31:50.040Z,98713.00
2022-09-16T11:33:34.465Z,98715.00
2022-09-16T11:35:41.081Z,98709.00
2022-09-16T11:37:26.471Z,98718.00
2022-09-16T11:39:17.674Z,98709.00
2022-09-16T11:41:01.085Z,98726.00
2022-09-16T11:42:42.541Z,98718.00
2022-09-16T11:44:37.068Z,98717.00
2022-09-16T11:46:18.924Z,98732.00
2022-09-16T11:48:19.468Z,98736.00
2022-09-16T11:50:19.394Z,98735.00
2022-09-16T11:52:08.793Z,98727.00
2022-09-16T11:54:08.350Z,98725.00
2022-09-16T11:55:55.364Z,98729.00
2022-09-16T11:57:36.035Z,98724.00
2022-09-16T11:59:22.676Z,98727.00
2022-09-16T12:01:04.452Z,98725.00
2022-09-16T12:02:45.291Z,98721.00
2022-09-16T12:04:27.973Z,98729.00
2022-09-16T12:06:11.128Z,98719.00
2022-09-16T12:07:53.024Z,98720.00
2022-09-16T12:09:41.929Z,98710.00
2022-09-16T12:11:25.331Z,98709.00
2022-09-16T12:13:06.696Z,98714.00
2022-09-16T12:14:48.089Z,98707.00
2022-09-16T12:16:32.708Z,98707.00
2022-09-16T12:18:16.239Z,98707.00
2022-09-16T12:19:56.637Z,98721.00
2022-09-16T12:21:38.151Z,98719.00
2022-09-16T12:23:19.709Z,98727.00
2022-09-16T12:25:03.478Z,98733.00
2022-09-16T12:26:43.248Z,98731.00
2022-09-16T12:28:25.709Z,98733.00
2022-09-16T12:30:06.653Z,98738.00
2022-09-16T12:31:48.903Z,98741.00
2022-09-16T12:33:28.692Z,98738.00
2022-09-16T12:35:12.324Z,98742.00
2022-09-16T12:36:51.494Z,98735.00
2022-09-16T12:38:26.024Z,98733.00
2022-09-16T12:40:00.704Z,98749.00
2022-09-16T12:42:16.663Z,98752.00
2022-09-16T12:44:33.634Z,98754.00
2022-09-16T12:46:42.767Z,98751.00
2022-09-16T12:49:04.068Z,98758.00
2022-09-16T12:51:01.266Z,98750.00
2022-09-16T12:53:05.775Z,98749.00
2022-09-16T12:55:19.521Z,98753.00
2022-09-16T12:57:20.805Z,98748.00
2022-09-16T12:59:34.768Z,98743.00
2022-09-16T13:01:23.097Z,98753.00
2022-09-16T13:03:01.781Z,98748.00
2022-09-16T13:04:44.917Z,98748.00
2022-09-16T13:06:28.300Z,98747.00
2022-09-16T13:08:07.988Z,98751.00
2022-09-16T13:09:41.923Z,98761.00
2022-09-16T13:13:27.143Z,98754.00
2022-09-16T13:15:04.704Z,98760.00
2022-09-16T13:16:39.420Z,98758.00
2022-09-16T13:18:27.799Z,98758.00
2022-09-16T13:20:13.076Z,98758.00
2022-09-16T13:21:47.428Z,98765.00
2022-09-16T13:23:26.273Z,98760.00
2022-09-16T13:25:10.984Z,98761.00
2022-09-16T13:26:46.746Z,98757.00
2022-09-16T13:28:38.064Z,98760.00
2022-09-16T13:30:37.013Z,98758.00
2022-09-16T13:32:28.179Z,98760.00
2022-09-16T13:34:16.748Z,98760.00
2022-09-16T13:36:02.822Z,98759.00
2022-09-16T13:37:36.104Z,98755.00
2022-09-16T13:39:15.675Z,98767.00
2022-09-16T13:40:57.424Z,98758.00
2022-09-16T13:42:30.753Z,98769.00
2022-09-16T13:44:31.735Z,98792.00
2022-09-16T13:46:27.404Z,98791.00
2022-09-16T13:48:13.814Z,98782.00
2022-09-16T13:49:52.996Z,98777.00
2022-09-16T13:51:27.133Z,98773.00
2022-09-16T13:53:11.288Z,98786.00
2022-09-16T13:55:10.047Z,98797.00
2022-09-16T13:57:04.144Z,98791.00
2022-09-16T13:58:48.380Z,98797.00
2022-09-16T14:00:24.664Z,98798.00
2022-09-16T14:02:15.112Z,98801.00
2022-09-16T14:03:59.096Z,98800.00
2022-09-16T14:05:51.849Z,98810.00
2022-09-16T14:07:41.472Z,98797.00
2022-09-16T14:09:36.418Z,98804.00
2022-09-16T14:11:22.021Z,98796.00
2022-09-16T14:13:12.705Z,98804.00
2022-09-16T14:14:48.003Z,98806.00
2022-09-16T14:16:24.979Z,98810.00
2022-09-16T14:18:02.987Z,98813.00
2022-09-16T14:19:41.098Z,98816.00
2022-09-16T14:21:21.285Z,98826.00
2022-09-16T14:23:06.852Z,98828.00
2022-09-16T14:24:43.404Z,98828.00
2022-09-16T14:26:19.738Z,98840.00
2022-09-16T14:27:54.716Z,98842.00
2022-09-16T14:29:28.229Z,98832.00
2022-09-16T14:31:07.605Z,98831.00
2022-09-16T14:32:42.589Z,98830.00
2022-09-16T14:34:24.824Z,98827.00
2022-09-16T14:36:02.309Z,98830.00
2022-09-16T14:37:36.635Z,98827.00
2022-09-16T14:39:17.466Z,98815.00
2022-09-16T14:40:51.946Z,98807.00
2022-09-16T14:42:25.352Z,98806.00
2022-09-16T14:44:09.873Z,98805.00
2022-09-16T14:45:50.309Z,98806.00
2022-09-16T14:47:47.312Z,98804.00
2022-09-16T14:49:24.387Z,98811.00
2022-09-16T14:50:59.970Z,98816.00
2022-09-16T14:52:36.242Z,98813.00
2022-09-16T14:54:19.430Z,98804.00
2022-09-16T14:57:33.344Z,98801.00
2022-09-16T14:59:09.754Z,98792.00
2022-09-16T15:00:48.602Z,98793.00
2022-09-16T15:02:28.223Z,98794.00
2022-09-16T15:04:10.705Z,98781.00
2022-09-16T15:05:47.593Z,98792.00
2022-09-16T15:07:27.521Z,98783.00
2022-09-16T15:09:07.292Z,98786.00
2022-09-16T15:10:56.228Z,98786.00
2022-09-16T15:12:34.920Z,98787.00
2022-09-16T15:14:14.757Z,98784.00
2022-09-16T15:15:54.330Z,98782.00
2022-09-16T15:17:29.831Z,98771.00
2022-09-16T15:19:07.203Z,98773.00
2022-09-16T15:20:43.507Z,98772.00
2022-09-16T15:22:17.405Z,98776.00
2022-09-16T15:23:57.325Z,98775.00
2022-09-16T15:25:35.190Z,98768.00
2022-09-16T15:27:09.695Z,98769.00
2022-09-16T15:28:56.378Z,98766.00
2022-09-16T15:30:30.216Z,98762.00
2022-09-16T15:32:20.632Z,98759.00
2022-09-16T15:34:03.596Z,98750.00
2022-09-16T15:35:37.121Z,98750.00
2022-09-16T15:37:33.548Z,98745.00
2022-09-16T15:39:25.313Z,98756.00
2022-09-16T15:41:07.286Z,98758.00
2022-09-16T15:42:39.750Z,98754.00
2022-09-16T15:44:26.212Z,98756.00
2022-09-16T15:46:03.442Z,98759.00
2022-09-16T15:47:52.616Z,98761.00
2022-09-16T15:49:30.763Z,98756.00
2022-09-16T15:51:10.729Z,98766.00
2022-09-16T15:52:56.762Z,98760.00
2022-09-16T15:54:39.192Z,98752.00
2022-09-16T15:56:26.473Z,98751.00
2022-09-16T15:58:06.561Z,98758.00
2022-09-16T15:59:46.869Z,98754.00
2022-09-16T16:01:38.296Z,98751.00
2022-09-16T16:03:21.748Z,98750.00
2022-09-16T16:05:07.462Z,98760.00
2022-09-16T16:06:52.601Z,98743.00
2022-09-16T16:08:46.248Z,98746.00
2022-09-16T16:10:23.746Z,98748.00
2022-09-16T16:11:58.380Z,98755.00
2022-09-16T16:13:33.429Z,98744.00
2022-09-16T16:15:08.381Z,98746.00
2022-09-16T16:17:01.469Z,98744.00
2022-09-16T16:18:37.905Z,98747.00
2022-09-16T16:20:13.285Z,98749.00
2022-09-16T16:21:46.786Z,98748.00
2022-09-16T16:23:20.102Z,98753.00
2022-09-16T16:24:53.784Z,98750.00
2022-09-16T16:26:29.169Z,98756.00
2022-09-16T16:28:03.009Z,98761.00
2022-09-16T16:29:38.694Z,98766.00
2022-09-16T16:31:15.755Z,98767.00
2022-09-16T16:32:49.168Z,98763.00
2022-09-16T16:34:21.472Z,98768.00
2022-09-16T16:35:54.724Z,98775.00
2022-09-16T16:37:52.725Z,98771.00
2022-09-16T16:39:26.949Z,98776.00
2022-09-16T16:41:02.401Z,98781.00
2022-09-16T16:42:37.333Z,98787.00
2022-09-16T16:44:13.545Z,98809.00
2022-09-16T16:45:58.051Z,98821.00
2022-09-16T16:47:31.610Z,98821.00
2022-09-16T16:49:05.595Z,98827.00
2022-09-16T16:50:42.038Z,98821.00
2022-09-16T16:52:22.428Z,98817.00
2022-09-16T16:53:56.928Z,98818.00
2022-09-16T16:55:30.269Z,98802.00
2022-09-16T16:57:04.470Z,98803.00
2022-09-16T16:58:41.278Z,98805.00
2022-09-16T17:00:20.799Z,98806.00
2022-09-16T17:01:57.844Z,98806.00
2022-09-16T17:03:33.022Z,98814.00
2022-09-16T17:05:10.745Z,98813.00
2022-09-16T17:06:45.857Z,98812.00
2022-09-16T17:08:19.217Z,98815.00
2022-09-16T17:09:52.701Z,98809.00
2022-09-16T17:11:30.176Z,98801.00
2022-09-16T17:13:08.426Z,98801.00
2022-09-16T17:14:44.635Z,98798.00
2022-09-16T17:16:22.213Z,98801.00
2022-09-16T17:17:56.816Z,98798.00
2022-09-16T17:19:32.503Z,98806.00
2022-09-16T17:21:12.961Z,98812.00
2022-09-16T17:22:48.362Z,98802.00
2022-09-16T17:24:23.114Z,98823.00
2022-09-16T17:25:59.765Z,98843.00
2022-09-16T17:27:33.093Z,98857.00
2022-09-16T17:29:15.011Z,98845.00
2022-09-16T17:30:50.909Z,98811.00
2022-09-16T17:32:25.034Z,98808.00
2022-09-16T17:34:07.205Z,98799.00
2022-09-16T17:35:44.519Z,98810.00
2022-09-16T17:37:19.856Z,98814.00
2022-09-16T17:38:58.190Z,98825.00
2022-09-16T17:40:33.261Z,98835.00
2022-09-16T17:42:10.017Z,98821.00
2022-09-16T17:43:46.284Z,98828.00
2022-09-16T17:45:26.457Z,98817.00
2022-09-16T17:47:03.123Z,98818.00
2022-09-16T17:48:37.985Z,98826.00
2022-09-16T17:50:11.608Z,98824.00
2022-09-16T17:51:45.659Z,98831.00
2022-09-16T17:53:19.147Z,98823.00
2022-09-16T17:54:52.394Z,98817.00
2022-09-16T17:56:28.493Z,98805.00
2022-09-16T17:58:00.959Z,98809.00
2022-09-16T17:59:34.940Z,98810.00
2022-09-16T18:01:11.012Z,98813.00
2022-09-16T18:02:46.173Z,98816.00
2022-09-16T18:04:19.804Z,98823.00
2022-09-16T18:05:58.905Z,98820.00
2022-09-16T18:07:34.940Z,98818.00
2022-09-16T18:09:10.097Z,98831.00
2022-09-16T18:10:44.782Z,98829.00
2022-09-16T18:12:18.788Z,98831.00
2022-09-16T18:14:03.442Z,98834.00
2022-09-16T18:15:38.653Z,98826.00
2022-09-16T18:17:11.991Z,98831.00
2022-09-16T18:18:54.477Z,98825.00
2022-09-16T18:20:31.453Z,98826.00
2022-09-16T18:22:05.841Z,98826.00
2022-09-16T18:23:47.510Z,98831.00
2022-09-16T18:25:23.901Z,98830.00
2022-09-16T18:26:57.463Z,98831.00
2022-09-16T18:28:35.820Z,98830.00
2022-09-16T18:30:20.169Z,98833.00
2022-09-16T18:31:54.530Z,98839.00
2022-09-16T18:33:45.608Z,98826.00
2022-09-16T18:35:22.794Z,98833.00
2022-09-16T18:37:07.649Z,98821.00
2022-09-16T18:38:45.887Z,98832.00
2022-09-16T18:40:24.593Z,98833.00
2022-09-16T18:41:58.087Z,98842.00
2022-09-16T18:43:32.023Z,98834.00
2022-09-16T18:45:09.956Z,98845.00
2022-09-16T18:46:46.618Z,98833.00
2022-09-16T18:48:21.826Z,98844.00
2022-09-16T18:49:55.154Z,98846.00
2022-09-16T18:51:35.733Z,98839.00
2022-09-16T18:53:09.188Z,98844.00
2022-09-16T18:54:45.377Z,98838.00
2022-09-16T18:56:22.355Z,98846.00
2022-09-16T18:57:56.078Z,98841.00
2022-09-16T18:59:34.047Z,98841.00
2022-09-16T19:01:17.299Z,98835.00
2022-09-16T19:02:51.935Z,98838.00
2022-09-16T19:04:28.322Z,98839.00
2022-09-16T19:06:01.686Z,98835.00
2022-09-16T19:07:36.665Z,98835.00
2022-09-16T19:09:13.627Z,98834.00
2022-09-16T19:10:46.848Z,98836.00
2022-09-16T19:12:20.216Z,98844.00
2022-09-16T19:13:53.562Z,98837.00
2022-09-16T19:15:26.982Z,98836.00
2022-09-16T19:17:00.924Z,98844.00
2022-09-16T19:18:36.173Z,98850.00
2022-09-16T19:20:10.927Z,98855.00
2022-09-16T19:21:45.237Z,98849.00
2022-09-16T19:23:20.562Z,98848.00
2022-09-16T19:24:54.195Z,98850.00
2022-09-16T19:26:29.940Z,98855.00
2022-09-16T19:28:03.540Z,98846.00
2022-09-16T19:29:37.429Z,98852.00
2022-09-16T19:31:14.636Z,98844.00
2022-09-16T19:32:48.165Z,98841.00
2022-09-16T19:34:22.761Z,98849.00
2022-09-16T19:35:56.249Z,98849.00